Time;durP1;ratioP1;P1;durP2;ratioP2;P2;SDS_P1;SDS_P2;PMS_P1;PMS_P2;Temp;Humidity;BMP_temperature;BMP_pressure;BME280_temperature;BME280_humidity;BME280_pressure;Samples;Min_cycle;Max_cycle;Signal;HPM_P1;HPM_P2
2022/02/05 00:06:58;;;;;;;21.48;9.85;;;-0.70;99.90;;;;;;21059062;28;20057;-44
2022/02/05 00:48:06;;;;;;;19.48;10.20;;;-0.80;99.90;;;;;;21075258;28;20088;-44
2022/02/05 00:58:09;;;;;;;23.52;11.10;;;-1.00;99.90;;;;;;21085442;28;20044;-45
2022/02/05 01:08:12;;;;;;;24.48;11.07;;;-1.00;99.90;;;;;;21106275;28;20044;-45
2022/02/05 01:18:17;;;;;;;21.95;9.35;;;-0.50;99.90;;;;;;21129832;28;20144;-44
2022/02/05 01:28:26;;;;;;;19.60;9.35;;;-0.50;99.90;;;;;;21108087;28;20028;-45
2022/02/05 01:49:17;;;;;;;23.52;10.43;;;-0.90;99.90;;;;;;21104156;28;20039;-45
2022/02/05 02:09:58;;;;;;;23.90;10.63;;;-1.10;99.90;;;;;;20959226;28;20068;-45
2022/02/05 02:30:24;;;;;;;28.40;11.63;;;-1.00;99.90;;;;;;20959440;28;20053;-47
2022/02/05 02:40:40;;;;;;;27.98;12.82;;;-1.20;99.90;;;;;;20990234;28;20102;-44
2022/02/05 03:01:03;;;;;;;24.27;11.65;;;-1.20;99.90;;;;;;21109568;28;20043;-43
2022/02/05 03:11:06;;;;;;;31.02;12.13;;;-1.30;99.90;;;;;;21114392;28;20502;-45
2022/02/05 03:21:09;;;;;;;25.70;11.90;;;-1.40;99.90;;;;;;21103020;28;20047;-46
2022/02/05 03:31:11;;;;;;;27.20;13.07;;;-1.40;99.90;;;;;;21083621;28;20039;-44
2022/02/05 03:41:14;;;;;;;36.58;15.48;;;-1.40;99.90;;;;;;21080443;28;20466;-44
2022/02/05 03:51:16;;;;;;;26.17;13.48;;;-1.30;99.90;;;;;;21091724;28;20623;-44
2022/02/05 04:01:19;;;;;;;23.10;12.48;;;-1.20;99.90;;;;;;21083680;28;20089;-45
2022/02/05 04:21:32;;;;;;;23.55;11.38;;;-1.30;99.90;;;;;;21092183;28;20093;-45
2022/02/05 04:31:35;;;;;;;28.35;12.50;;;-1.40;99.90;;;;;;21128445;28;20036;-44
2022/02/05 04:41:48;;;;;;;25.52;12.57;;;-1.50;99.90;;;;;;21110127;28;20035;-44
2022/02/05 05:22:17;;;;;;;24.45;12.02;;;-1.30;99.90;;;;;;21113322;28;20044;-45
2022/02/05 05:32:20;;;;;;;28.02;12.43;;;-1.40;99.90;;;;;;21114052;28;20027;-45
2022/02/05 05:42:26;;;;;;;23.42;11.90;;;-1.40;99.90;;;;;;21117571;28;20057;-44
2022/02/05 05:52:29;;;;;;;24.02;11.57;;;-1.20;99.90;;;;;;21115805;28;20431;-46
2022/02/05 06:02:32;;;;;;;22.35;11.77;;;-1.20;99.90;;;;;;21140996;28;20433;-45
2022/02/05 06:12:36;;;;;;;14.90;6.78;;;-1.00;99.90;;;;;;20976852;28;20146;-46
2022/02/05 06:22:39;;;;;;;17.95;7.97;;;-1.00;99.90;;;;;;20958969;28;20080;-43
2022/02/05 06:32:42;;;;;;;7.40;4.05;;;-1.10;99.90;;;;;;20958913;28;20278;-45
2022/02/05 06:42:46;;;;;;;8.95;4.45;;;-1.20;99.90;;;;;;20957867;28;20072;-45
2022/02/05 06:52:49;;;;;;;11.40;4.35;;;-1.40;99.90;;;;;;21028002;28;20044;-44
2022/02/05 07:02:52;;;;;;;9.18;4.07;;;-1.20;99.90;;;;;;21111351;28;20062;-45
2022/02/05 07:33:03;;;;;;;4.55;2.00;;;-0.30;99.90;;;;;;21116127;28;20085;-46
2022/02/05 07:43:06;;;;;;;17.35;9.32;;;0.50;99.90;;;;;;21097220;28;20039;-46
2022/02/05 07:53:09;;;;;;;16.67;9.13;;;1.50;99.90;;;;;;21097331;28;20036;-45
2022/02/05 08:03:11;;;;;;;19.17;9.73;;;2.30;99.90;;;;;;21078392;28;20062;-45
2022/02/05 08:13:14;;;;;;;16.35;9.05;;;2.90;99.90;;;;;;21105422;28;20050;-45
2022/02/05 08:23:17;;;;;;;18.83;10.57;;;3.40;99.90;;;;;;21103869;28;20028;-46
2022/02/05 08:33:20;;;;;;;14.73;9.32;;;3.80;99.90;;;;;;21102774;28;20032;-45
2022/02/05 08:43:23;;;;;;;17.27;10.13;;;4.00;99.90;;;;;;21098538;28;20070;-46
2022/02/05 08:53:25;;;;;;;16.73;9.50;;;4.20;99.90;;;;;;21125682;28;20085;-47
2022/02/05 09:03:33;;;;;;;17.80;9.85;;;4.60;99.90;;;;;;21121533;28;20089;-46
2022/02/05 09:23:48;;;;;;;16.00;9.50;;;5.30;99.90;;;;;;21147624;28;20093;-45
2022/02/05 09:33:51;;;;;;;15.50;8.90;;;6.10;99.90;;;;;;21111033;28;20089;-45
2022/02/05 09:43:53;;;;;;;14.80;8.60;;;6.50;99.90;;;;;;21127518;28;20325;-46
2022/02/05 09:53:57;;;;;;;12.25;7.47;;;6.70;99.90;;;;;;21128928;28;20096;-48
2022/02/05 10:04:00;;;;;;;14.07;7.60;;;6.80;99.90;;;;;;21114372;28;20089;-45
2022/02/05 10:14:26;;;;;;;16.20;9.25;;;6.70;99.90;;;;;;21093011;28;20377;-45
2022/02/05 10:24:30;;;;;;;12.82;8.25;;;6.30;99.90;;;;;;21077174;28;20171;-48
2022/02/05 10:35:21;;;;;;;15.73;8.95;;;5.70;99.90;;;;;;21041276;28;20143;-46
2022/02/05 10:45:16;;;;;;;16.95;8.15;;;6.00;99.90;;;;;;20994966;28;20080;-45
2022/02/05 10:55:26;;;;;;;12.32;7.38;;;7.40;99.90;;;;;;21010924;28;20092;-45
2022/02/05 11:05:50;;;;;;;;;;;8.40;99.90;;;;;;20986507;28;20261;-45
2022/02/05 11:26:14;;;;;;;9.45;5.90;;;9.50;99.70;;;;;;21088938;28;20093;-45
2022/02/05 11:46:21;;;;;;;9.75;6.07;;;10.10;94.80;;;;;;21106734;28;20032;-47
2022/02/05 11:56:56;;;;;;;7.78;5.22;;;9.80;95.00;;;;;;21101623;28;20036;-45
2022/02/05 12:07:07;;;;;;;7.55;4.63;;;10.20;94.40;;;;;;21078765;28;20044;-45
2022/02/05 12:17:15;;;;;;;7.55;4.40;;;10.70;92.40;;;;;;21087696;28;20062;-43
2022/02/05 12:27:37;;;;;;;9.87;5.33;;;10.70;91.20;;;;;;21068896;28;20043;-43
2022/02/05 12:37:39;;;;;;;12.38;7.72;;;10.90;91.00;;;;;;21107047;28;20104;-46
2022/02/05 12:47:44;;;;;;;13.00;8.85;;;10.50;91.90;;;;;;21082076;28;20066;-43
2022/02/05 12:57:47;;;;;;;16.40;10.27;;;10.30;93.60;;;;;;21104584;28;20039;-43
2022/02/05 13:07:53;;;;;;;17.15;10.77;;;10.20;94.20;;;;;;21101139;28;20230;-43
2022/02/05 13:28:26;;;;;;;18.55;11.00;;;9.90;94.90;;;;;;21081953;28;20498;-44
2022/02/05 13:38:34;;;;;;;23.42;11.77;;;9.70;94.60;;;;;;21109657;28;20058;-43
2022/02/05 13:48:37;;;;;;;20.80;12.98;;;9.30;96.30;;;;;;21108168;28;20035;-42
2022/02/05 13:58:40;;;;;;;21.83;13.00;;;9.00;96.40;;;;;;21102969;28;20044;-46
2022/02/05 14:08:45;;;;;;;22.13;12.55;;;8.40;97.10;;;;;;21091623;28;20035;-45
2022/02/05 14:18:55;;;;;;;25.10;14.75;;;7.60;98.10;;;;;;21120534;28;20074;-45
2022/02/05 14:29:02;;;;;;;25.20;15.10;;;7.20;99.40;;;;;;21129580;28;20337;-46
2022/02/05 14:49:29;;;;;;;30.75;18.63;;;6.40;99.90;;;;;;21098243;28;20063;-47
2022/02/05 14:59:32;;;;;;;40.72;22.48;;;6.10;99.90;;;;;;21090371;28;20036;-45
2022/02/05 15:09:34;;;;;;;47.58;26.70;;;5.70;99.90;;;;;;21101686;28;20040;-45
2022/02/05 15:19:37;;;;;;;47.28;25.92;;;5.30;99.90;;;;;;21108828;28;20092;-46
2022/02/05 15:29:40;;;;;;;57.88;29.05;;;4.80;99.90;;;;;;21120799;28;20061;-45
2022/02/05 15:40:02;;;;;;;53.35;30.42;;;4.50;99.90;;;;;;21081597;28;20359;-45
2022/02/05 15:50:07;;;;;;;54.15;30.50;;;4.00;99.90;;;;;;21102815;28;20040;-45
2022/02/05 16:10:42;;;;;;;43.88;21.02;;;2.50;99.90;;;;;;20788382;28;20575;-51
2022/02/05 16:20:44;;;;;;;31.05;15.13;;;2.30;99.90;;;;;;20770795;28;20101;-53
2022/02/05 16:30:53;;;;;;;2.00;0.88;;;2.00;99.90;;;;;;20787098;28;20065;-51
2022/02/05 16:41:04;;;;;;;1.20;0.45;;;1.50;99.90;;;;;;20863632;28;20071;-51
2022/02/05 16:51:13;;;;;;;1.60;0.70;;;1.00;99.90;;;;;;21044422;28;20051;-51
2022/02/05 17:01:16;;;;;;;1.45;0.50;;;0.90;99.90;;;;;;21082535;28;20027;-54
2022/02/05 17:11:19;;;;;;;1.27;0.55;;;0.90;99.90;;;;;;21127498;28;20380;-53
2022/02/05 17:21:22;;;;;;;1.13;0.50;;;0.70;99.90;;;;;;21081865;28;20070;-50
2022/02/05 17:31:25;;;;;;;2.15;0.40;;;0.70;99.90;;;;;;21062560;28;20031;-54
2022/02/05 17:41:28;;;;;;;1.00;0.43;;;0.50;99.90;;;;;;21090435;28;20028;-52
2022/02/05 17:51:30;;;;;;;1.42;0.60;;;0.60;99.90;;;;;;21085317;28;20364;-54
2022/02/05 18:01:33;;;;;;;0.60;0.13;;;0.40;99.90;;;;;;21104224;28;20039;-56
2022/02/05 18:11:42;;;;;;;0.77;0.30;;;0.40;99.90;;;;;;21089622;28;20060;-52
2022/02/05 18:21:45;;;;;;;2.67;0.70;;;0.50;99.90;;;;;;21146758;28;20116;-54
2022/02/05 18:31:48;;;;;;;2.47;1.10;;;0.50;99.90;;;;;;21089093;28;20185;-53
2022/02/05 18:41:52;;;;;;;2.05;1.10;;;0.50;99.90;;;;;;21112621;28;20108;-51
2022/02/05 18:51:54;;;;;;;3.13;1.20;;;0.60;99.90;;;;;;20966482;28;20053;-52
2022/02/05 19:12:28;;;;;;;1.90;0.90;;;0.50;99.90;;;;;;20956652;28;20052;-51
2022/02/05 19:22:30;;;;;;;2.08;1.00;;;0.30;99.90;;;;;;20968971;28;20371;-54
2022/02/05 19:32:33;;;;;;;2.33;0.47;;;0.20;99.90;;;;;;21116162;28;20040;-52
2022/02/05 19:42:36;;;;;;;4.22;0.90;;;0.20;99.90;;;;;;21101371;28;20032;-51
2022/02/05 19:52:39;;;;;;;1.48;0.70;;;0.10;99.90;;;;;;21089746;28;20101;-50
2022/02/05 20:02:44;;;;;;;2.97;1.02;;;-0.10;99.90;;;;;;21093985;28;20454;-55
2022/02/05 20:12:46;;;;;;;1.65;0.98;;;-0.10;99.90;;;;;;21066087;28;20121;-51
2022/02/05 20:22:49;;;;;;;1.55;0.70;;;0.00;99.90;;;;;;21090773;28;20503;-49
2022/02/05 20:32:52;;;;;;;4.32;0.90;;;-0.20;99.90;;;;;;21105369;28;20935;-47
2022/02/05 20:42:55;;;;;;;1.80;0.80;;;-0.10;99.90;;;;;;21123657;28;20039;-48
2022/02/05 20:52:59;;;;;;;2.90;0.93;;;-0.10;99.90;;;;;;21117601;28;20035;-48
2022/02/05 21:03:02;;;;;;;6.82;3.30;;;-0.10;99.90;;;;;;21128478;28;20032;-48
2022/02/05 21:13:05;;;;;;;9.27;3.88;;;-0.30;99.90;;;;;;21124276;28;20356;-51
2022/02/05 21:23:14;;;;;;;6.25;1.60;;;-0.50;99.90;;;;;;21116172;28;20069;-47
2022/02/05 21:43:38;;;;;;;2.20;0.88;;;-0.40;99.90;;;;;;21107932;28;20089;-52
2022/02/05 21:53:45;;;;;;;1.65;0.80;;;-0.60;99.90;;;;;;21121064;28;20089;-55
2022/02/05 22:03:47;;;;;;;2.08;0.90;;;-0.70;99.90;;;;;;21109707;28;20048;-52
2022/02/05 22:13:50;;;;;;;3.17;1.30;;;-0.70;99.90;;;;;;21087824;28;20056;-50
2022/02/05 22:23:52;;;;;;;3.15;1.15;;;-0.90;99.90;;;;;;21106976;28;20379;-50
2022/02/05 22:33:58;;;;;;;2.90;1.27;;;-0.90;99.90;;;;;;21110216;28;20036;-48
2022/02/05 22:44:03;;;;;;;3.08;1.65;;;-1.00;99.90;;;;;;21105091;28;20093;-47
2022/02/05 22:54:06;;;;;;;34.47;15.90;;;-1.20;99.90;;;;;;21115844;28;20085;-50
2022/02/05 23:04:11;;;;;;;3.63;1.92;;;-1.10;99.90;;;;;;21104662;28;20027;-58
2022/02/05 23:45:17;;;;;;;5.43;2.40;;;-1.10;99.90;;;;;;21098440;28;20040;-45
2022/02/05 23:55:21;;;;;;;5.38;2.30;;;-1.20;99.90;;;;;;21097823;28;20043;-48
